sensor_id;sensor_type;location;lat;lon;timestamp;P1;durP1;ratioP1;P2;durP2;ratioP2
55170;SDS011;41060;47.510;8.680;2022-10-03T00:00:00;0.10;;;0.10;;
55170;SDS011;41060;47.510;8.680;2022-10-03T00:05:42;1.65;;;0.10;;
55170;SDS011;41060;47.510;8.680;2022-10-03T00:08:20;0.20;;;0.13;;
55170;SDS011;41060;47.510;8.680;2022-10-03T00:11:01;0.10;;;0.10;;
55170;SDS011;41060;47.510;8.680;2022-10-03T00:13:40;0.20;;;0.10;;
55170;SDS011;41060;47.510;8.680;2022-10-03T00:16:14;0.28;;;0.10;;
55170;SDS011;41060;47.510;8.680;2022-10-03T00:18:50;0.80;;;0.38;;
55170;SDS011;41060;47.510;8.680;2022-10-03T00:21:31;0.40;;;0.20;;
55170;SDS011;41060;47.510;8.680;2022-10-03T00:24:19;0.00;;;0.00;;
55170;SDS011;41060;47.510;8.680;2022-10-03T00:26:55;0.10;;;0.10;;
55170;SDS011;41060;47.510;8.680;2022-10-03T00:32:30;0.10;;;0.10;;
55170;SDS011;41060;47.510;8.680;2022-10-03T00:35:13;0.10;;;0.10;;
55170;SDS011;41060;47.510;8.680;2022-10-03T00:37:57;0.10;;;0.10;;
55170;SDS011;41060;47.510;8.680;2022-10-03T00:40:35;0.73;;;0.20;;
55170;SDS011;41060;47.510;8.680;2022-10-03T00:43:44;0.60;;;0.20;;
55170;SDS011;41060;47.510;8.680;2022-10-03T00:46:44;1.33;;;0.20;;
55170;SDS011;41060;47.510;8.680;2022-10-03T00:52:37;0.10;;;0.10;;
55170;SDS011;41060;47.510;8.680;2022-10-03T00:55:17;0.17;;;0.13;;
55170;SDS011;41060;47.510;8.680;2022-10-03T00:58:18;0.20;;;0.20;;
55170;SDS011;41060;47.510;8.680;2022-10-03T01:01:02;0.70;;;0.30;;
55170;SDS011;41060;47.510;8.680;2022-10-03T01:03:48;5.38;;;0.50;;
55170;SDS011;41060;47.510;8.680;2022-10-03T01:06:26;0.98;;;0.50;;
55170;SDS011;41060;47.510;8.680;2022-10-03T01:11:59;1.30;;;0.47;;
55170;SDS011;41060;47.510;8.680;2022-10-03T01:17:37;1.95;;;0.77;;
55170;SDS011;41060;47.510;8.680;2022-10-03T01:20:19;1.30;;;0.50;;
55170;SDS011;41060;47.510;8.680;2022-10-03T01:26:02;0.10;;;0.10;;
55170;SDS011;41060;47.510;8.680;2022-10-03T01:28:46;0.50;;;0.13;;
55170;SDS011;41060;47.510;8.680;2022-10-03T01:31:37;0.28;;;0.05;;
55170;SDS011;41060;47.510;8.680;2022-10-03T01:34:12;0.10;;;0.10;;
55170;SDS011;41060;47.510;8.680;2022-10-03T01:36:50;2.55;;;0.20;;
55170;SDS011;41060;47.510;8.680;2022-10-03T01:39:26;2.53;;;0.20;;
55170;SDS011;41060;47.510;8.680;2022-10-03T01:41:58;0.28;;;0.10;;
55170;SDS011;41060;47.510;8.680;2022-10-03T01:44:30;1.33;;;0.47;;
55170;SDS011;41060;47.510;8.680;2022-10-03T01:47:12;0.20;;;0.20;;
55170;SDS011;41060;47.510;8.680;2022-10-03T01:49:47;0.63;;;0.20;;
55170;SDS011;41060;47.510;8.680;2022-10-03T01:52:23;1.17;;;0.20;;
55170;SDS011;41060;47.510;8.680;2022-10-03T01:54:58;0.20;;;0.20;;
55170;SDS011;41060;47.510;8.680;2022-10-03T01:57:34;0.13;;;0.13;;
55170;SDS011;41060;47.510;8.680;2022-10-03T02:00:10;0.47;;;0.22;;
55170;SDS011;41060;47.510;8.680;2022-10-03T02:02:43;0.30;;;0.15;;
55170;SDS011;41060;47.510;8.680;2022-10-03T02:05:16;0.05;;;0.05;;
55170;SDS011;41060;47.510;8.680;2022-10-03T02:07:51;0.13;;;0.10;;
55170;SDS011;41060;47.510;8.680;2022-10-03T02:10:32;0.10;;;0.10;;
55170;SDS011;41060;47.510;8.680;2022-10-03T02:13:10;0.20;;;0.13;;
55170;SDS011;41060;47.510;8.680;2022-10-03T02:15:49;0.43;;;0.13;;
55170;SDS011;41060;47.510;8.680;2022-10-03T02:18:27;0.32;;;0.22;;
55170;SDS011;41060;47.510;8.680;2022-10-03T02:21:07;0.28;;;0.10;;
55170;SDS011;41060;47.510;8.680;2022-10-03T02:23:38;0.30;;;0.30;;
55170;SDS011;41060;47.510;8.680;2022-10-03T02:29:30;1.60;;;0.40;;
55170;SDS011;41060;47.510;8.680;2022-10-03T02:38:27;1.98;;;0.82;;
55170;SDS011;41060;47.510;8.680;2022-10-03T02:41:18;0.82;;;0.55;;
55170;SDS011;41060;47.510;8.680;2022-10-03T02:44:14;1.23;;;0.30;;
55170;SDS011;41060;47.510;8.680;2022-10-03T02:47:00;0.75;;;0.57;;
55170;SDS011;41060;47.510;8.680;2022-10-03T02:59:16;0.68;;;0.40;;
55170;SDS011;41060;47.510;8.680;2022-10-03T03:02:10;0.30;;;0.30;;
55170;SDS011;41060;47.510;8.680;2022-10-03T03:05:33;0.57;;;0.40;;
55170;SDS011;41060;47.510;8.680;2022-10-03T03:11:43;0.30;;;0.30;;
55170;SDS011;41060;47.510;8.680;2022-10-03T03:17:34;0.60;;;0.40;;
55170;SDS011;41060;47.510;8.680;2022-10-03T03:23:02;1.88;;;0.40;;
55170;SDS011;41060;47.510;8.680;2022-10-03T03:25:47;6.82;;;1.40;;
55170;SDS011;41060;47.510;8.680;2022-10-03T03:28:40;0.85;;;0.75;;
55170;SDS011;41060;47.510;8.680;2022-10-03T03:31:19;1.38;;;0.75;;
55170;SDS011;41060;47.510;8.680;2022-10-03T03:33:56;2.75;;;0.82;;
55170;SDS011;41060;47.510;8.680;2022-10-03T03:36:34;1.67;;;0.75;;
55170;SDS011;41060;47.510;8.680;2022-10-03T03:39:10;2.92;;;1.00;;
55170;SDS011;41060;47.510;8.680;2022-10-03T03:41:55;3.53;;;0.83;;
55170;SDS011;41060;47.510;8.680;2022-10-03T03:44:43;1.77;;;0.90;;
55170;SDS011;41060;47.510;8.680;2022-10-03T03:50:34;9.40;;;0.60;;
55170;SDS011;41060;47.510;8.680;2022-10-03T03:53:41;0.43;;;0.38;;
55170;SDS011;41060;47.510;8.680;2022-10-03T03:56:22;0.70;;;0.38;;
55170;SDS011;41060;47.510;8.680;2022-10-03T04:04:41;0.68;;;0.40;;
55170;SDS011;41060;47.510;8.680;2022-10-03T04:07:18;1.90;;;0.88;;
55170;SDS011;41060;47.510;8.680;2022-10-03T04:10:03;2.72;;;0.80;;
55170;SDS011;41060;47.510;8.680;2022-10-03T04:12:44;1.02;;;0.63;;
55170;SDS011;41060;47.510;8.680;2022-10-03T04:15:31;0.63;;;0.40;;
55170;SDS011;41060;47.510;8.680;2022-10-03T04:18:15;0.30;;;0.30;;
55170;SDS011;41060;47.510;8.680;2022-10-03T04:21:19;0.35;;;0.30;;
55170;SDS011;41060;47.510;8.680;2022-10-03T04:24:03;1.52;;;0.50;;
55170;SDS011;41060;47.510;8.680;2022-10-03T04:26:52;0.73;;;0.50;;
55170;SDS011;41060;47.510;8.680;2022-10-03T04:29:37;3.47;;;1.00;;
55170;SDS011;41060;47.510;8.680;2022-10-03T04:32:13;0.77;;;0.43;;
55170;SDS011;41060;47.510;8.680;2022-10-03T04:35:04;3.30;;;0.73;;
55170;SDS011;41060;47.510;8.680;2022-10-03T04:37:54;1.02;;;0.38;;
55170;SDS011;41060;47.510;8.680;2022-10-03T04:40:36;2.58;;;0.65;;
55170;SDS011;41060;47.510;8.680;2022-10-03T04:43:12;2.20;;;0.57;;
55170;SDS011;41060;47.510;8.680;2022-10-03T04:45:53;2.45;;;0.88;;
55170;SDS011;41060;47.510;8.680;2022-10-03T04:48:31;1.02;;;0.50;;
55170;SDS011;41060;47.510;8.680;2022-10-03T04:51:07;0.85;;;0.55;;
55170;SDS011;41060;47.510;8.680;2022-10-03T04:53:48;1.17;;;0.50;;
55170;SDS011;41060;47.510;8.680;2022-10-03T04:56:37;0.63;;;0.40;;
55170;SDS011;41060;47.510;8.680;2022-10-03T04:59:11;0.85;;;0.65;;
55170;SDS011;41060;47.510;8.680;2022-10-03T05:01:54;1.92;;;0.80;;
55170;SDS011;41060;47.510;8.680;2022-10-03T05:04:29;1.25;;;0.65;;
55170;SDS011;41060;47.510;8.680;2022-10-03T05:07:04;0.50;;;0.35;;
55170;SDS011;41060;47.510;8.680;2022-10-03T05:09:41;1.02;;;0.68;;
55170;SDS011;41060;47.510;8.680;2022-10-03T05:12:14;1.48;;;0.75;;
55170;SDS011;41060;47.510;8.680;2022-10-03T05:14:50;1.15;;;0.65;;
55170;SDS011;41060;47.510;8.680;2022-10-03T05:17:26;1.08;;;0.60;;
55170;SDS011;41060;47.510;8.680;2022-10-03T05:20:08;0.50;;;0.40;;
55170;SDS011;41060;47.510;8.680;2022-10-03T05:22:50;0.80;;;0.60;;
55170;SDS011;41060;47.510;8.680;2022-10-03T05:25:27;0.68;;;0.40;;
55170;SDS011;41060;47.510;8.680;2022-10-03T05:28:05;0.80;;;0.60;;
55170;SDS011;41060;47.510;8.680;2022-10-03T05:30:41;0.88;;;0.60;;
55170;SDS011;41060;47.510;8.680;2022-10-03T05:33:20;0.57;;;0.30;;
55170;SDS011;41060;47.510;8.680;2022-10-03T05:36:01;1.20;;;0.60;;
55170;SDS011;41060;47.510;8.680;2022-10-03T05:41:41;1.52;;;0.50;;
55170;SDS011;41060;47.510;8.680;2022-10-03T05:44:18;1.45;;;0.80;;
55170;SDS011;41060;47.510;8.680;2022-10-03T05:46:57;1.02;;;0.60;;
55170;SDS011;41060;47.510;8.680;2022-10-03T05:49:28;1.33;;;0.50;;
55170;SDS011;41060;47.510;8.680;2022-10-03T06:04:29;2.53;;;1.35;;
55170;SDS011;41060;47.510;8.680;2022-10-03T06:07:13;1.50;;;0.80;;
55170;SDS011;41060;47.510;8.680;2022-10-03T06:09:54;3.20;;;0.77;;
55170;SDS011;41060;47.510;8.680;2022-10-03T06:12:42;1.95;;;0.80;;
55170;SDS011;41060;47.510;8.680;2022-10-03T06:15:25;1.40;;;0.50;;
55170;SDS011;41060;47.510;8.680;2022-10-03T06:18:11;1.13;;;0.73;;
55170;SDS011;41060;47.510;8.680;2022-10-03T06:27:15;3.03;;;0.90;;
55170;SDS011;41060;47.510;8.680;2022-10-03T06:30:17;1.20;;;0.95;;
55170;SDS011;41060;47.510;8.680;2022-10-03T06:33:03;1.95;;;0.75;;
55170;SDS011;41060;47.510;8.680;2022-10-03T06:36:01;3.10;;;0.90;;
55170;SDS011;41060;47.510;8.680;2022-10-03T06:45:18;3.17;;;1.25;;
55170;SDS011;41060;47.510;8.680;2022-10-03T06:48:06;0.98;;;0.50;;
55170;SDS011;41060;47.510;8.680;2022-10-03T06:51:06;2.28;;;0.70;;
55170;SDS011;41060;47.510;8.680;2022-10-03T06:53:56;4.15;;;0.93;;
55170;SDS011;41060;47.510;8.680;2022-10-03T07:00:01;1.02;;;0.85;;
55170;SDS011;41060;47.510;8.680;2022-10-03T07:06:04;1.50;;;0.90;;
55170;SDS011;41060;47.510;8.680;2022-10-03T07:27:53;1.95;;;0.93;;
55170;SDS011;41060;47.510;8.680;2022-10-03T07:30:35;2.38;;;0.90;;
55170;SDS011;41060;47.510;8.680;2022-10-03T07:33:34;7.40;;;1.70;;
55170;SDS011;41060;47.510;8.680;2022-10-03T07:36:21;1.83;;;0.75;;
55170;SDS011;41060;47.510;8.680;2022-10-03T07:39:32;3.90;;;1.08;;
55170;SDS011;41060;47.510;8.680;2022-10-03T07:45:32;1.40;;;0.90;;
55170;SDS011;41060;47.510;8.680;2022-10-03T07:51:15;2.40;;;1.00;;
55170;SDS011;41060;47.510;8.680;2022-10-03T07:54:01;2.35;;;0.90;;
55170;SDS011;41060;47.510;8.680;2022-10-03T07:56:54;3.67;;;1.48;;
55170;SDS011;41060;47.510;8.680;2022-10-03T07:59:54;3.90;;;1.60;;
55170;SDS011;41060;47.510;8.680;2022-10-03T08:02:36;2.40;;;1.45;;
55170;SDS011;41060;47.510;8.680;2022-10-03T08:05:20;2.58;;;1.08;;
55170;SDS011;41060;47.510;8.680;2022-10-03T08:07:59;3.40;;;1.27;;
55170;SDS011;41060;47.510;8.680;2022-10-03T08:13:45;2.20;;;1.42;;
55170;SDS011;41060;47.510;8.680;2022-10-03T08:16:31;1.42;;;1.10;;
55170;SDS011;41060;47.510;8.680;2022-10-03T08:19:20;4.07;;;1.30;;
55170;SDS011;41060;47.510;8.680;2022-10-03T08:22:02;3.95;;;1.60;;
55170;SDS011;41060;47.510;8.680;2022-10-03T08:24:52;2.25;;;1.50;;
55170;SDS011;41060;47.510;8.680;2022-10-03T08:27:37;3.15;;;1.80;;
55170;SDS011;41060;47.510;8.680;2022-10-03T08:30:18;2.85;;;1.35;;
55170;SDS011;41060;47.510;8.680;2022-10-03T08:32:55;2.08;;;1.23;;
55170;SDS011;41060;47.510;8.680;2022-10-03T08:35:31;3.22;;;1.48;;
55170;SDS011;41060;47.510;8.680;2022-10-03T08:47:13;2.60;;;1.50;;
55170;SDS011;41060;47.510;8.680;2022-10-03T08:56:13;6.28;;;1.90;;
55170;SDS011;41060;47.510;8.680;2022-10-03T08:58:49;4.20;;;1.73;;
55170;SDS011;41060;47.510;8.680;2022-10-03T09:01:41;2.50;;;2.10;;
55170;SDS011;41060;47.510;8.680;2022-10-03T09:07:48;2.60;;;1.48;;
55170;SDS011;41060;47.510;8.680;2022-10-03T09:10:36;2.25;;;1.40;;
55170;SDS011;41060;47.510;8.680;2022-10-03T09:13:28;3.75;;;1.83;;
55170;SDS011;41060;47.510;8.680;2022-10-03T09:16:33;5.82;;;1.90;;
55170;SDS011;41060;47.510;8.680;2022-10-03T09:25:21;3.53;;;1.55;;
55170;SDS011;41060;47.510;8.680;2022-10-03T09:30:59;2.03;;;1.27;;
55170;SDS011;41060;47.510;8.680;2022-10-03T09:49:19;5.43;;;1.25;;
55170;SDS011;41060;47.510;8.680;2022-10-03T09:52:17;2.05;;;1.10;;
55170;SDS011;41060;47.510;8.680;2022-10-03T09:55:05;1.27;;;0.55;;
55170;SDS011;41060;47.510;8.680;2022-10-03T09:57:56;3.13;;;0.95;;
55170;SDS011;41060;47.510;8.680;2022-10-03T10:00:46;1.10;;;0.63;;
55170;SDS011;41060;47.510;8.680;2022-10-03T10:09:36;3.50;;;0.88;;
55170;SDS011;41060;47.510;8.680;2022-10-03T10:12:26;1.75;;;0.80;;
55170;SDS011;41060;47.510;8.680;2022-10-03T10:15:35;1.52;;;1.10;;
55170;SDS011;41060;47.510;8.680;2022-10-03T10:18:36;0.98;;;0.80;;
55170;SDS011;41060;47.510;8.680;2022-10-03T10:21:41;1.60;;;0.80;;
55170;SDS011;41060;47.510;8.680;2022-10-03T10:36:44;1.10;;;0.70;;
55170;SDS011;41060;47.510;8.680;2022-10-03T10:39:46;3.70;;;1.25;;
55170;SDS011;41060;47.510;8.680;2022-10-03T10:45:42;1.33;;;0.75;;
55170;SDS011;41060;47.510;8.680;2022-10-03T10:57:59;1.65;;;0.90;;
55170;SDS011;41060;47.510;8.680;2022-10-03T11:00:59;0.82;;;0.45;;
55170;SDS011;41060;47.510;8.680;2022-10-03T11:04:07;2.25;;;0.90;;
55170;SDS011;41060;47.510;8.680;2022-10-03T11:07:10;3.42;;;0.77;;
55170;SDS011;41060;47.510;8.680;2022-10-03T11:09:55;0.98;;;0.77;;
55170;SDS011;41060;47.510;8.680;2022-10-03T11:13:06;2.53;;;0.65;;
55170;SDS011;41060;47.510;8.680;2022-10-03T11:16:15;0.82;;;0.63;;
55170;SDS011;41060;47.510;8.680;2022-10-03T11:22:45;2.47;;;0.75;;
55170;SDS011;41060;47.510;8.680;2022-10-03T11:32:18;3.35;;;0.50;;
55170;SDS011;41060;47.510;8.680;2022-10-03T11:38:05;3.30;;;0.80;;
55170;SDS011;41060;47.510;8.680;2022-10-03T11:40:43;1.27;;;0.80;;
55170;SDS011;41060;47.510;8.680;2022-10-03T11:43:37;1.70;;;0.90;;
55170;SDS011;41060;47.510;8.680;2022-10-03T11:49:56;1.15;;;0.70;;
55170;SDS011;41060;47.510;8.680;2022-10-03T11:52:53;1.38;;;0.70;;
55170;SDS011;41060;47.510;8.680;2022-10-03T11:55:33;0.93;;;0.60;;
55170;SDS011;41060;47.510;8.680;2022-10-03T11:58:14;1.10;;;0.82;;
55170;SDS011;41060;47.510;8.680;2022-10-03T12:00:59;4.60;;;1.13;;
55170;SDS011;41060;47.510;8.680;2022-10-03T12:03:42;1.40;;;0.80;;
55170;SDS011;41060;47.510;8.680;2022-10-03T12:06:16;1.58;;;0.82;;
55170;SDS011;41060;47.510;8.680;2022-10-03T12:09:14;1.00;;;0.60;;
55170;SDS011;41060;47.510;8.680;2022-10-03T12:11:48;1.20;;;0.68;;
55170;SDS011;41060;47.510;8.680;2022-10-03T12:14:24;1.42;;;0.73;;
55170;SDS011;41060;47.510;8.680;2022-10-03T12:16:56;0.95;;;0.63;;
55170;SDS011;41060;47.510;8.680;2022-10-03T12:19:32;0.98;;;0.70;;
55170;SDS011;41060;47.510;8.680;2022-10-03T12:22:07;1.77;;;0.70;;
55170;SDS011;41060;47.510;8.680;2022-10-03T12:24:42;0.98;;;0.80;;
55170;SDS011;41060;47.510;8.680;2022-10-03T12:27:12;1.15;;;0.70;;
55170;SDS011;41060;47.510;8.680;2022-10-03T12:29:51;1.00;;;0.65;;
55170;SDS011;41060;47.510;8.680;2022-10-03T12:32:27;1.83;;;1.05;;
55170;SDS011;41060;47.510;8.680;2022-10-03T12:35:12;4.75;;;1.67;;
55170;SDS011;41060;47.510;8.680;2022-10-03T12:37:50;1.77;;;0.70;;
55170;SDS011;41060;47.510;8.680;2022-10-03T12:40:32;4.43;;;1.27;;
55170;SDS011;41060;47.510;8.680;2022-10-03T12:43:08;1.98;;;0.77;;
55170;SDS011;41060;47.510;8.680;2022-10-03T12:45:49;0.95;;;0.82;;
55170;SDS011;41060;47.510;8.680;2022-10-03T12:51:17;5.20;;;1.33;;
55170;SDS011;41060;47.510;8.680;2022-10-03T12:54:04;1.50;;;0.93;;
55170;SDS011;41060;47.510;8.680;2022-10-03T12:56:42;2.28;;;0.90;;
55170;SDS011;41060;47.510;8.680;2022-10-03T12:59:14;1.55;;;0.77;;
55170;SDS011;41060;47.510;8.680;2022-10-03T13:04:51;1.58;;;0.80;;
55170;SDS011;41060;47.510;8.680;2022-10-03T13:07:35;5.93;;;1.20;;
55170;SDS011;41060;47.510;8.680;2022-10-03T13:10:12;1.42;;;1.00;;
55170;SDS011;41060;47.510;8.680;2022-10-03T13:12:48;1.73;;;0.95;;
55170;SDS011;41060;47.510;8.680;2022-10-03T13:21:27;0.63;;;0.63;;
55170;SDS011;41060;47.510;8.680;2022-10-03T13:24:09;0.70;;;0.52;;
55170;SDS011;41060;47.510;8.680;2022-10-03T13:26:51;3.63;;;0.63;;
55170;SDS011;41060;47.510;8.680;2022-10-03T13:29:24;1.65;;;0.65;;
55170;SDS011;41060;47.510;8.680;2022-10-03T13:32:00;1.13;;;0.55;;
55170;SDS011;41060;47.510;8.680;2022-10-03T13:34:35;1.83;;;0.60;;
55170;SDS011;41060;47.510;8.680;2022-10-03T13:37:11;1.35;;;0.73;;
55170;SDS011;41060;47.510;8.680;2022-10-03T13:39:50;0.57;;;0.50;;
55170;SDS011;41060;47.510;8.680;2022-10-03T13:42:19;0.82;;;0.43;;
55170;SDS011;41060;47.510;8.680;2022-10-03T13:44:58;1.92;;;0.80;;
55170;SDS011;41060;47.510;8.680;2022-10-03T13:47:31;1.70;;;0.95;;
55170;SDS011;41060;47.510;8.680;2022-10-03T13:50:12;2.03;;;0.63;;
55170;SDS011;41060;47.510;8.680;2022-10-03T13:52:48;1.20;;;0.70;;
55170;SDS011;41060;47.510;8.680;2022-10-03T13:55:27;1.20;;;0.50;;
55170;SDS011;41060;47.510;8.680;2022-10-03T13:58:10;0.40;;;0.32;;
55170;SDS011;41060;47.510;8.680;2022-10-03T14:01:03;1.20;;;0.60;;
55170;SDS011;41060;47.510;8.680;2022-10-03T14:03:48;0.75;;;0.52;;
55170;SDS011;41060;47.510;8.680;2022-10-03T14:06:33;1.83;;;0.60;;
55170;SDS011;41060;47.510;8.680;2022-10-03T14:09:19;5.20;;;0.90;;
55170;SDS011;41060;47.510;8.680;2022-10-03T14:11:59;1.15;;;0.60;;
55170;SDS011;41060;47.510;8.680;2022-10-03T14:14:51;2.83;;;0.65;;
55170;SDS011;41060;47.510;8.680;2022-10-03T14:17:35;1.02;;;0.40;;
55170;SDS011;41060;47.510;8.680;2022-10-03T14:20:13;1.35;;;0.60;;
55170;SDS011;41060;47.510;8.680;2022-10-03T14:22:53;2.20;;;0.88;;
55170;SDS011;41060;47.510;8.680;2022-10-03T14:25:32;5.07;;;1.00;;
55170;SDS011;41060;47.510;8.680;2022-10-03T14:30:42;1.08;;;0.73;;
55170;SDS011;41060;47.510;8.680;2022-10-03T14:33:21;1.15;;;0.57;;
55170;SDS011;41060;47.510;8.680;2022-10-03T14:36:00;0.90;;;0.60;;
55170;SDS011;41060;47.510;8.680;2022-10-03T14:38:40;2.70;;;0.82;;
55170;SDS011;41060;47.510;8.680;2022-10-03T14:44:16;2.13;;;0.70;;
55170;SDS011;41060;47.510;8.680;2022-10-03T14:46:49;1.45;;;1.00;;
55170;SDS011;41060;47.510;8.680;2022-10-03T14:49:22;5.88;;;0.80;;
55170;SDS011;41060;47.510;8.680;2022-10-03T14:51:54;1.00;;;0.70;;
55170;SDS011;41060;47.510;8.680;2022-10-03T14:54:26;4.05;;;0.80;;
55170;SDS011;41060;47.510;8.680;2022-10-03T14:56:56;1.33;;;0.60;;
55170;SDS011;41060;47.510;8.680;2022-10-03T14:59:29;1.23;;;0.80;;
55170;SDS011;41060;47.510;8.680;2022-10-03T15:01:58;3.45;;;1.10;;
55170;SDS011;41060;47.510;8.680;2022-10-03T15:04:30;1.92;;;0.80;;
55170;SDS011;41060;47.510;8.680;2022-10-03T15:07:01;1.58;;;1.13;;
55170;SDS011;41060;47.510;8.680;2022-10-03T15:09:31;1.30;;;0.85;;
55170;SDS011;41060;47.510;8.680;2022-10-03T15:12:07;2.28;;;1.00;;
55170;SDS011;41060;47.510;8.680;2022-10-03T15:14:41;2.15;;;1.08;;
55170;SDS011;41060;47.510;8.680;2022-10-03T15:19:44;2.45;;;0.85;;
55170;SDS011;41060;47.510;8.680;2022-10-03T15:22:19;2.25;;;0.70;;
55170;SDS011;41060;47.510;8.680;2022-10-03T15:24:53;2.58;;;0.90;;
55170;SDS011;41060;47.510;8.680;2022-10-03T15:27:24;1.35;;;0.90;;
55170;SDS011;41060;47.510;8.680;2022-10-03T15:29:54;1.45;;;0.85;;
55170;SDS011;41060;47.510;8.680;2022-10-03T15:32:25;1.17;;;0.85;;
55170;SDS011;41060;47.510;8.680;2022-10-03T15:34:57;2.38;;;0.98;;
55170;SDS011;41060;47.510;8.680;2022-10-03T15:37:26;3.20;;;1.00;;
55170;SDS011;41060;47.510;8.680;2022-10-03T15:40:01;2.08;;;1.00;;
55170;SDS011;41060;47.510;8.680;2022-10-03T15:42:42;2.28;;;0.82;;
55170;SDS011;41060;47.510;8.680;2022-10-03T15:45:20;1.50;;;0.90;;
55170;SDS011;41060;47.510;8.680;2022-10-03T15:47:53;1.00;;;0.80;;
55170;SDS011;41060;47.510;8.680;2022-10-03T15:50:24;0.82;;;0.55;;
55170;SDS011;41060;47.510;8.680;2022-10-03T15:52:59;2.65;;;1.00;;
55170;SDS011;41060;47.510;8.680;2022-10-03T15:55:33;2.60;;;1.10;;
55170;SDS011;41060;47.510;8.680;2022-10-03T15:58:07;3.13;;;0.90;;
55170;SDS011;41060;47.510;8.680;2022-10-03T16:00:42;3.88;;;1.38;;
55170;SDS011;41060;47.510;8.680;2022-10-03T16:03:13;1.10;;;0.88;;
55170;SDS011;41060;47.510;8.680;2022-10-03T16:05:43;2.72;;;0.93;;
55170;SDS011;41060;47.510;8.680;2022-10-03T16:08:19;3.30;;;0.95;;
55170;SDS011;41060;47.510;8.680;2022-10-03T16:10:52;1.90;;;1.00;;
55170;SDS011;41060;47.510;8.680;2022-10-03T16:13:33;1.92;;;1.08;;
55170;SDS011;41060;47.510;8.680;2022-10-03T16:16:08;1.67;;;0.82;;
55170;SDS011;41060;47.510;8.680;2022-10-03T16:18:50;3.35;;;1.08;;
55170;SDS011;41060;47.510;8.680;2022-10-03T16:21:25;1.80;;;1.13;;
55170;SDS011;41060;47.510;8.680;2022-10-03T16:23:58;1.40;;;0.63;;
55170;SDS011;41060;47.510;8.680;2022-10-03T16:26:29;1.70;;;0.80;;
55170;SDS011;41060;47.510;8.680;2022-10-03T16:29:00;1.77;;;0.98;;
55170;SDS011;41060;47.510;8.680;2022-10-03T16:31:38;2.60;;;1.60;;
55170;SDS011;41060;47.510;8.680;2022-10-03T16:34:11;1.17;;;0.98;;
55170;SDS011;41060;47.510;8.680;2022-10-03T16:36:43;2.05;;;1.38;;
55170;SDS011;41060;47.510;8.680;2022-10-03T16:39:15;1.48;;;1.00;;
55170;SDS011;41060;47.510;8.680;2022-10-03T16:41:46;1.23;;;0.90;;
55170;SDS011;41060;47.510;8.680;2022-10-03T16:44:18;4.53;;;1.38;;
55170;SDS011;41060;47.510;8.680;2022-10-03T16:46:51;1.80;;;1.00;;
55170;SDS011;41060;47.510;8.680;2022-10-03T16:49:27;4.47;;;1.30;;
55170;SDS011;41060;47.510;8.680;2022-10-03T16:52:33;2.30;;;1.52;;
55170;SDS011;41060;47.510;8.680;2022-10-03T16:55:02;1.90;;;1.23;;
55170;SDS011;41060;47.510;8.680;2022-10-03T16:57:37;3.20;;;1.27;;
55170;SDS011;41060;47.510;8.680;2022-10-03T17:00:12;1.10;;;0.85;;
55170;SDS011;41060;47.510;8.680;2022-10-03T17:02:44;2.63;;;1.60;;
55170;SDS011;41060;47.510;8.680;2022-10-03T17:05:12;4.28;;;1.23;;
55170;SDS011;41060;47.510;8.680;2022-10-03T17:07:41;3.92;;;1.30;;
55170;SDS011;41060;47.510;8.680;2022-10-03T17:10:26;4.93;;;1.33;;
55170;SDS011;41060;47.510;8.680;2022-10-03T17:12:58;3.97;;;1.33;;
55170;SDS011;41060;47.510;8.680;2022-10-03T17:15:30;3.33;;;1.45;;
55170;SDS011;41060;47.510;8.680;2022-10-03T17:18:05;3.28;;;1.70;;
55170;SDS011;41060;47.510;8.680;2022-10-03T17:20:42;1.95;;;1.33;;
55170;SDS011;41060;47.510;8.680;2022-10-03T17:23:20;2.28;;;1.40;;
55170;SDS011;41060;47.510;8.680;2022-10-03T17:26:02;3.15;;;1.25;;
55170;SDS011;41060;47.510;8.680;2022-10-03T17:28:36;1.83;;;1.33;;
55170;SDS011;41060;47.510;8.680;2022-10-03T17:31:15;2.08;;;1.10;;
55170;SDS011;41060;47.510;8.680;2022-10-03T17:33:52;2.05;;;1.30;;
55170;SDS011;41060;47.510;8.680;2022-10-03T17:36:32;1.83;;;1.10;;
55170;SDS011;41060;47.510;8.680;2022-10-03T17:39:20;4.18;;;1.20;;
55170;SDS011;41060;47.510;8.680;2022-10-03T17:42:02;2.08;;;1.10;;
55170;SDS011;41060;47.510;8.680;2022-10-03T17:44:39;6.80;;;2.25;;
55170;SDS011;41060;47.510;8.680;2022-10-03T17:47:22;5.50;;;2.03;;
55170;SDS011;41060;47.510;8.680;2022-10-03T17:49:57;2.72;;;1.80;;
55170;SDS011;41060;47.510;8.680;2022-10-03T17:52:31;2.42;;;1.40;;
55170;SDS011;41060;47.510;8.680;2022-10-03T17:55:01;1.75;;;1.30;;
55170;SDS011;41060;47.510;8.680;2022-10-03T17:57:30;2.13;;;1.38;;
55170;SDS011;41060;47.510;8.680;2022-10-03T18:00:04;2.13;;;1.30;;
55170;SDS011;41060;47.510;8.680;2022-10-03T18:02:37;1.88;;;1.20;;
55170;SDS011;41060;47.510;8.680;2022-10-03T18:05:15;2.28;;;1.23;;
55170;SDS011;41060;47.510;8.680;2022-10-03T18:07:44;2.33;;;1.60;;
55170;SDS011;41060;47.510;8.680;2022-10-03T18:10:19;4.60;;;2.30;;
55170;SDS011;41060;47.510;8.680;2022-10-03T18:12:49;1.98;;;1.10;;
55170;SDS011;41060;47.510;8.680;2022-10-03T18:15:21;1.60;;;1.15;;
55170;SDS011;41060;47.510;8.680;2022-10-03T18:18:25;1.98;;;1.17;;
55170;SDS011;41060;47.510;8.680;2022-10-03T18:21:21;2.42;;;1.02;;
55170;SDS011;41060;47.510;8.680;2022-10-03T18:24:11;2.25;;;1.10;;
55170;SDS011;41060;47.510;8.680;2022-10-03T18:26:50;2.88;;;1.60;;
55170;SDS011;41060;47.510;8.680;2022-10-03T18:29:25;2.45;;;1.35;;
55170;SDS011;41060;47.510;8.680;2022-10-03T18:32:02;1.67;;;1.50;;
55170;SDS011;41060;47.510;8.680;2022-10-03T18:34:33;3.55;;;1.50;;
55170;SDS011;41060;47.510;8.680;2022-10-03T18:37:15;2.30;;;1.35;;
55170;SDS011;41060;47.510;8.680;2022-10-03T18:39:57;1.77;;;1.38;;
55170;SDS011;41060;47.510;8.680;2022-10-03T18:42:33;3.25;;;1.48;;
55170;SDS011;41060;47.510;8.680;2022-10-03T18:45:00;1.55;;;0.95;;
55170;SDS011;41060;47.510;8.680;2022-10-03T18:47:28;2.42;;;1.58;;
55170;SDS011;41060;47.510;8.680;2022-10-03T18:50:04;4.43;;;1.50;;
55170;SDS011;41060;47.510;8.680;2022-10-03T18:52:40;2.08;;;1.00;;
55170;SDS011;41060;47.510;8.680;2022-10-03T18:55:14;2.05;;;1.40;;
55170;SDS011;41060;47.510;8.680;2022-10-03T18:57:47;2.80;;;1.45;;
55170;SDS011;41060;47.510;8.680;2022-10-03T19:00:22;3.30;;;1.33;;
55170;SDS011;41060;47.510;8.680;2022-10-03T19:02:52;1.52;;;1.17;;
55170;SDS011;41060;47.510;8.680;2022-10-03T19:05:24;2.28;;;1.27;;
55170;SDS011;41060;47.510;8.680;2022-10-03T19:08:00;5.22;;;1.30;;
55170;SDS011;41060;47.510;8.680;2022-10-03T19:10:37;3.83;;;1.35;;
55170;SDS011;41060;47.510;8.680;2022-10-03T19:13:12;2.38;;;1.17;;
55170;SDS011;41060;47.510;8.680;2022-10-03T19:15:51;3.97;;;1.63;;
55170;SDS011;41060;47.510;8.680;2022-10-03T19:18:31;2.70;;;1.52;;
55170;SDS011;41060;47.510;8.680;2022-10-03T19:21:08;1.50;;;1.15;;
55170;SDS011;41060;47.510;8.680;2022-10-03T19:23:44;3.38;;;1.50;;
55170;SDS011;41060;47.510;8.680;2022-10-03T19:26:19;2.45;;;1.77;;
55170;SDS011;41060;47.510;8.680;2022-10-03T19:28:49;3.22;;;1.60;;
55170;SDS011;41060;47.510;8.680;2022-10-03T19:31:23;2.13;;;1.30;;
55170;SDS011;41060;47.510;8.680;2022-10-03T19:33:53;2.03;;;1.30;;
55170;SDS011;41060;47.510;8.680;2022-10-03T19:36:25;2.30;;;1.35;;
55170;SDS011;41060;47.510;8.680;2022-10-03T19:38:56;5.03;;;1.60;;
55170;SDS011;41060;47.510;8.680;2022-10-03T19:41:26;2.15;;;1.13;;
55170;SDS011;41060;47.510;8.680;2022-10-03T19:44:03;3.42;;;1.70;;
55170;SDS011;41060;47.510;8.680;2022-10-03T19:46:43;2.70;;;1.17;;
55170;SDS011;41060;47.510;8.680;2022-10-03T19:49:24;2.80;;;1.63;;
55170;SDS011;41060;47.510;8.680;2022-10-03T19:52:17;2.10;;;1.30;;
55170;SDS011;41060;47.510;8.680;2022-10-03T19:54:52;1.85;;;1.30;;
55170;SDS011;41060;47.510;8.680;2022-10-03T19:57:25;2.35;;;1.38;;